createdAt,value
2019-02-04T00:01:39.789Z,30.17
2019-02-04T00:04:11.061Z,28.30
2019-02-04T00:06:42.270Z,29.57
2019-02-04T00:09:13.549Z,14.57
2019-02-04T00:11:44.789Z,22.67
2019-02-04T00:14:15.990Z,19.23
2019-02-04T00:16:47.233Z,13.43
2019-02-04T00:19:18.549Z,21.87
2019-02-04T00:21:49.781Z,23.40
2019-02-04T00:24:21.349Z,11.37
2019-02-04T00:26:53.549Z,22.00
2019-02-04T00:29:24.833Z,20.00
2019-02-04T00:32:14.427Z,20.17
2019-02-04T00:34:46.061Z,16.73
2019-02-04T00:37:17.324Z,11.53
2019-02-04T00:39:48.506Z,17.53
2019-02-04T00:42:19.790Z,14.37
2019-02-04T00:44:51.069Z,16.03
2019-02-04T00:47:22.472Z,12.00
2019-02-04T00:49:53.661Z,12.57
2019-02-04T00:52:24.949Z,15.23
2019-02-04T00:54:56.189Z,14.80
2019-02-04T00:57:27.437Z,17.47
2019-02-04T00:59:58.700Z,17.67
2019-02-04T01:02:29.990Z,21.20
2019-02-04T01:05:01.350Z,20.37
2019-02-04T01:07:32.549Z,14.00
2019-02-04T01:10:05.829Z,14.07
2019-02-04T01:12:38.032Z,9.60
2019-02-04T01:15:20.874Z,14.90
2019-02-04T01:17:45.942Z,12.40
2019-02-04T01:23:02.186Z,4.60
2019-02-04T01:25:33.381Z,11.07
2019-02-04T01:28:06.074Z,11.87
2019-02-04T01:30:37.269Z,11.87
2019-02-04T01:33:10.234Z,10.77
2019-02-04T01:35:41.566Z,12.53
2019-02-04T01:38:12.741Z,10.03
2019-02-04T01:40:43.990Z,6.90
2019-02-04T01:46:47.744Z,9.43
2019-02-04T01:49:25.234Z,11.13
2019-02-04T01:51:57.962Z,11.67
2019-02-04T01:54:29.229Z,9.30
2019-02-04T01:57:12.462Z,10.37
2019-02-04T01:59:43.704Z,7.03
2019-02-04T02:02:14.915Z,9.30
2019-02-04T02:04:46.190Z,7.03
2019-02-04T02:07:17.462Z,8.50
2019-02-04T02:10:00.434Z,9.60
2019-02-04T02:15:56.349Z,7.97
2019-02-04T02:18:27.550Z,6.40
2019-02-04T02:20:58.794Z,11.17
2019-02-04T02:23:32.343Z,10.07
2019-02-04T02:26:03.717Z,12.57
2019-02-04T02:28:34.943Z,6.30
2019-02-04T02:31:06.261Z,6.40
2019-02-04T02:33:37.501Z,7.43
2019-02-04T02:36:10.630Z,2.93
2019-02-04T02:38:41.785Z,10.17
2019-02-04T02:41:12.996Z,4.00
2019-02-04T02:43:44.101Z,5.20
2019-02-04T02:46:15.275Z,6.50
2019-02-04T02:48:46.879Z,5.97
2019-02-04T02:51:18.142Z,8.10
2019-02-04T02:53:49.505Z,9.07
2019-02-04T02:56:20.763Z,5.97
2019-02-04T02:58:51.981Z,8.40
2019-02-04T03:01:23.619Z,4.20
2019-02-04T03:03:54.849Z,8.40
2019-02-04T03:06:27.546Z,7.30
2019-02-04T03:08:59.299Z,4.60
2019-02-04T03:11:30.542Z,7.30
2019-02-04T03:14:02.033Z,5.73
2019-02-04T03:16:33.270Z,5.10
2019-02-04T03:19:04.470Z,3.50
2019-02-04T03:21:35.705Z,4.93
2019-02-04T03:24:06.895Z,4.40
2019-02-04T03:26:38.143Z,5.90
2019-02-04T03:29:09.323Z,6.03
2019-02-04T03:31:45.682Z,6.70
2019-02-04T03:34:13.382Z,5.33
2019-02-04T03:36:46.070Z,4.67
2019-02-04T03:39:17.282Z,4.20
2019-02-04T03:41:49.949Z,5.07
2019-02-04T03:44:21.224Z,3.83
2019-02-04T03:46:54.023Z,3.77
2019-02-04T03:49:25.263Z,2.60
2019-02-04T03:51:56.478Z,3.70
2019-02-04T03:54:27.652Z,2.90
2019-02-04T03:56:58.883Z,5.13
2019-02-04T03:59:30.062Z,5.23
2019-02-04T04:02:01.678Z,5.77
2019-02-04T04:04:32.853Z,5.93
2019-02-04T04:07:04.095Z,5.67
2019-02-04T04:09:35.290Z,5.00
2019-02-04T04:12:06.539Z,5.93
2019-02-04T04:14:38.165Z,4.57
2019-02-04T04:17:11.949Z,2.63
2019-02-04T04:19:43.118Z,5.50
2019-02-04T04:22:14.359Z,4.83
2019-02-04T04:24:45.537Z,5.60
2019-02-04T04:27:17.257Z,5.50
2019-02-04T04:29:48.386Z,4.53
2019-02-04T04:32:19.628Z,2.87
2019-02-04T04:34:50.799Z,4.90
2019-02-04T04:37:22.046Z,4.33
2019-02-04T04:39:53.538Z,5.10
2019-02-04T04:42:24.773Z,4.07
2019-02-04T04:44:55.950Z,3.07
2019-02-04T04:47:27.182Z,4.37
2019-02-04T04:49:58.478Z,5.43
2019-02-04T04:52:30.143Z,1.33
2019-02-04T04:55:01.241Z,2.27
2019-02-04T04:57:32.499Z,4.90
2019-02-04T05:00:05.170Z,3.40
2019-02-04T05:05:37.853Z,4.80
2019-02-04T05:08:12.630Z,4.90
2019-02-04T05:10:43.812Z,2.40
2019-02-04T05:13:15.063Z,5.00
2019-02-04T05:15:46.234Z,4.00
2019-02-04T05:18:17.483Z,4.90
2019-02-04T05:20:49.280Z,4.30
2019-02-04T05:23:22.226Z,4.40
2019-02-04T05:25:53.422Z,4.07
2019-02-04T05:28:24.638Z,5.87
2019-02-04T05:30:55.830Z,5.57
2019-02-04T05:33:27.064Z,6.87
2019-02-04T05:35:59.453Z,5.70
2019-02-04T05:38:30.682Z,5.63
2019-02-04T05:41:01.912Z,6.97
2019-02-04T05:43:33.155Z,7.37
2019-02-04T05:46:04.355Z,10.10
2019-02-04T05:48:35.989Z,5.13
2019-02-04T05:51:07.055Z,3.63
2019-02-04T05:53:38.312Z,6.57
2019-02-04T05:56:09.542Z,10.47
2019-02-04T05:58:40.703Z,8.37
2019-02-04T06:01:12.201Z,9.90
2019-02-04T06:03:43.383Z,10.60
2019-02-04T06:06:14.601Z,10.30
2019-02-04T06:08:45.789Z,8.30
2019-02-04T06:11:17.007Z,7.43
2019-02-04T06:13:48.541Z,7.17
2019-02-04T06:16:19.744Z,6.67
2019-02-04T06:19:00.513Z,8.67
2019-02-04T06:21:24.128Z,4.30
2019-02-04T06:23:55.335Z,7.93
2019-02-04T06:26:26.543Z,3.40
2019-02-04T06:28:57.778Z,8.03
2019-02-04T06:31:28.957Z,7.77
2019-02-04T06:34:00.147Z,9.70
2019-02-04T06:36:31.346Z,7.47
2019-02-04T06:39:05.707Z,8.20
2019-02-04T06:41:36.910Z,9.47
2019-02-04T06:44:10.298Z,9.43
2019-02-04T06:46:41.504Z,9.23
2019-02-04T06:49:12.797Z,6.40
2019-02-04T06:51:43.973Z,7.23
2019-02-04T06:54:15.263Z,10.83
2019-02-04T06:56:46.482Z,13.30
2019-02-04T06:59:17.743Z,13.07
2019-02-04T07:01:48.952Z,15.10
2019-02-04T07:04:20.127Z,20.50
2019-02-04T07:06:51.315Z,14.07
2019-02-04T07:09:22.562Z,9.80
2019-02-04T07:11:53.751Z,8.93
2019-02-04T07:14:25.001Z,10.80
2019-02-04T07:16:56.220Z,7.70
2019-02-04T07:19:27.501Z,9.73
2019-02-04T07:21:58.748Z,12.07
2019-02-04T07:24:29.979Z,10.20
2019-02-04T07:27:01.177Z,11.10
2019-02-04T07:29:32.423Z,12.53
2019-02-04T07:32:03.642Z,10.43
2019-02-04T07:34:37.833Z,10.70
2019-02-04T07:37:09.007Z,17.23
2019-02-04T07:39:40.209Z,10.97
2019-02-04T07:42:11.339Z,13.57
2019-02-04T07:44:45.353Z,13.43
2019-02-04T07:47:16.542Z,14.33
2019-02-04T07:49:47.816Z,14.93
2019-02-04T07:52:19.043Z,14.13
2019-02-04T07:54:50.575Z,7.30
2019-02-04T07:57:21.702Z,13.27
2019-02-04T07:59:52.932Z,17.23
2019-02-04T08:02:24.069Z,8.57
2019-02-04T08:04:55.281Z,14.23
2019-02-04T08:07:26.458Z,6.47
2019-02-04T08:09:59.401Z,11.70
2019-02-04T08:12:30.617Z,11.33
2019-02-04T08:15:01.870Z,12.30
2019-02-04T08:17:33.021Z,15.07
2019-02-04T08:20:15.921Z,14.27
2019-02-04T08:22:47.121Z,9.97
2019-02-04T08:25:19.812Z,14.20
2019-02-04T08:27:50.962Z,23.73
2019-02-04T08:30:28.274Z,14.27
2019-02-04T08:32:59.482Z,14.93
2019-02-04T08:35:31.071Z,24.07
2019-02-04T08:38:04.163Z,24.50
2019-02-04T08:40:35.889Z,23.13
2019-02-04T08:43:07.081Z,17.07
2019-02-04T08:45:38.254Z,15.07
2019-02-04T08:48:09.461Z,13.00
2019-02-04T08:50:46.879Z,11.77
2019-02-04T08:53:18.423Z,12.30
2019-02-04T08:56:05.632Z,11.77
2019-02-04T08:58:36.787Z,13.00
2019-02-04T09:01:08.138Z,7.43
2019-02-04T09:03:39.722Z,15.50
2019-02-04T09:06:10.963Z,17.30
2019-02-04T09:08:42.157Z,15.73
2019-02-04T09:11:13.312Z,16.63
2019-02-04T09:13:44.541Z,6.83
2019-02-04T09:16:15.723Z,11.90
2019-02-04T09:18:51.862Z,16.17
2019-02-04T09:21:23.134Z,17.23
2019-02-04T09:23:54.531Z,19.87
2019-02-04T09:26:25.761Z,18.43
2019-02-04T09:28:56.903Z,15.87
2019-02-04T09:31:28.067Z,19.20
2019-02-04T09:33:59.247Z,25.50
2019-02-04T09:36:30.522Z,22.97
2019-02-04T09:39:20.383Z,18.30
2019-02-04T09:41:51.504Z,18.87
2019-02-04T09:44:22.741Z,16.20
2019-02-04T09:46:53.949Z,18.70
2019-02-04T09:49:25.161Z,19.00
2019-02-04T09:51:56.327Z,20.63
2019-02-04T09:54:28.634Z,14.03
2019-02-04T09:57:07.053Z,22.03
2019-02-04T09:59:36.622Z,15.00
2019-02-04T10:02:07.791Z,15.87
2019-02-04T10:04:39.524Z,20.53
2019-02-04T10:07:10.737Z,30.93
2019-02-04T10:09:42.018Z,21.20
2019-02-04T10:12:13.212Z,22.43
2019-02-04T10:14:44.404Z,25.00
2019-02-04T10:17:15.949Z,24.03
2019-02-04T10:19:47.200Z,28.23
2019-02-04T10:22:18.331Z,27.60
2019-02-04T10:24:49.583Z,26.87
2019-02-04T10:27:20.786Z,21.17
2019-02-04T10:29:52.498Z,22.27
2019-02-04T10:32:23.798Z,22.30
2019-02-04T10:34:55.041Z,23.70
2019-02-04T10:37:27.195Z,17.73
2019-02-04T10:43:29.347Z,17.60
2019-02-04T10:46:00.557Z,25.37
2019-02-04T10:48:31.864Z,41.83
2019-02-04T10:51:03.106Z,30.57
2019-02-04T10:53:34.781Z,21.20
2019-02-04T10:56:06.121Z,43.30
2019-02-04T11:04:12.772Z,34.27
2019-02-04T11:06:43.977Z,37.17
2019-02-04T11:16:38.522Z,31.03
2019-02-04T11:19:10.022Z,30.43
2019-02-04T11:21:41.262Z,19.70
2019-02-04T11:24:13.451Z,92.53
2019-02-04T11:26:44.693Z,24.77
2019-02-04T11:29:18.662Z,31.70
2019-02-04T11:31:48.832Z,50.57
2019-02-04T11:34:21.134Z,33.10
2019-02-04T11:36:52.432Z,55.70
2019-02-04T11:39:23.650Z,40.10
2019-02-04T11:41:55.011Z,39.93
2019-02-04T11:44:29.259Z,56.13
2019-02-04T11:47:00.670Z,28.40
2019-02-04T11:49:31.887Z,30.37
2019-02-04T11:52:03.141Z,52.70
2019-02-04T11:54:34.354Z,64.60
2019-02-04T12:00:37.978Z,63.53
2019-02-04T12:03:11.707Z,36.27
2019-02-04T12:05:43.001Z,54.63
2019-02-04T12:08:14.223Z,62.23
2019-02-04T12:10:49.022Z,69.67
2019-02-04T12:13:20.229Z,60.50
2019-02-04T12:15:52.241Z,62.97
2019-02-04T12:18:23.458Z,48.23
2019-02-04T12:20:54.718Z,58.00
2019-02-04T12:23:26.230Z,50.40
2019-02-04T12:25:57.469Z,35.70
2019-02-04T12:28:28.603Z,29.97
2019-02-04T12:30:59.862Z,37.70
2019-02-04T12:33:32.517Z,35.77
2019-02-04T12:36:03.793Z,34.47
2019-02-04T12:38:38.018Z,33.10
2019-02-04T12:41:09.271Z,19.17
2019-02-04T12:43:40.382Z,18.53
2019-02-04T12:46:11.643Z,20.30
2019-02-04T12:48:42.954Z,22.13
2019-02-04T12:51:14.242Z,50.23
2019-02-04T12:53:45.492Z,44.00
2019-02-04T12:56:16.763Z,45.60
2019-02-04T12:58:55.323Z,26.30
2019-02-04T13:01:20.805Z,55.63
2019-02-04T13:03:52.002Z,53.20
2019-02-04T13:06:23.229Z,13.97
2019-02-04T13:08:54.462Z,37.87
2019-02-04T13:11:25.706Z,28.50
2019-02-04T13:13:57.054Z,61.33
2019-02-04T13:16:28.329Z,35.67
2019-02-04T13:18:59.382Z,40.30
2019-02-04T13:21:30.558Z,55.47
2019-02-04T13:24:01.804Z,40.70
2019-02-04T13:26:33.045Z,31.90
2019-02-04T13:29:04.259Z,48.27
2019-02-04T13:31:35.494Z,18.80
2019-02-04T13:34:06.697Z,29.63
2019-02-04T13:36:37.947Z,26.63
2019-02-04T13:39:09.217Z,30.37
2019-02-04T13:41:42.010Z,29.77
2019-02-04T13:44:14.201Z,29.57
2019-02-04T13:46:45.429Z,36.00
2019-02-04T13:49:16.661Z,39.10
2019-02-04T13:51:57.059Z,38.07
2019-02-04T13:54:20.753Z,30.33
2019-02-04T13:56:52.982Z,30.33
2019-02-04T13:59:25.240Z,27.97
2019-02-04T14:01:56.730Z,34.60
2019-02-04T14:04:29.360Z,33.80
2019-02-04T14:07:00.601Z,32.13
2019-02-04T14:09:31.809Z,32.17
2019-02-04T14:12:03.028Z,27.83
2019-02-04T14:14:34.653Z,29.50
2019-02-04T14:17:05.910Z,24.60
2019-02-04T14:19:37.086Z,35.17
2019-02-04T14:22:09.568Z,30.57
2019-02-04T14:24:41.058Z,29.37
2019-02-04T14:27:12.415Z,47.90
2019-02-04T14:29:43.637Z,65.67
2019-02-04T14:32:14.876Z,42.33
2019-02-04T14:34:46.000Z,35.17
2019-02-04T14:37:17.232Z,41.83
2019-02-04T14:39:48.459Z,48.33
2019-02-04T14:42:19.607Z,29.27
2019-02-04T14:44:52.014Z,27.00
2019-02-04T14:47:26.409Z,31.03
2019-02-04T14:50:09.914Z,31.77
2019-02-04T14:52:47.015Z,20.93
2019-02-04T14:55:30.765Z,27.50
2019-02-04T14:58:08.410Z,27.93
2019-02-04T15:00:57.806Z,30.37
2019-02-04T15:03:43.994Z,15.67
2019-02-04T15:06:30.312Z,24.03
2019-02-04T15:09:32.350Z,28.93
2019-02-04T15:12:21.698Z,33.17
2019-02-04T15:15:05.191Z,26.63
2019-02-04T15:17:36.895Z,31.50
2019-02-04T15:20:27.831Z,28.27
2019-02-04T15:23:16.890Z,98.83
2019-02-04T15:26:00.545Z,36.10
2019-02-04T15:28:48.479Z,32.77
2019-02-04T15:31:25.833Z,32.40
2019-02-04T15:34:07.631Z,38.63
2019-02-04T15:37:05.747Z,40.23
2019-02-04T15:39:51.771Z,38.97
2019-02-04T15:42:42.356Z,43.53
2019-02-04T15:45:19.525Z,42.80
2019-02-04T15:47:54.893Z,48.27
2019-02-04T15:50:44.306Z,47.00
2019-02-04T15:53:15.499Z,51.10
2019-02-04T15:55:46.705Z,53.03
2019-02-04T15:58:19.420Z,70.30
2019-02-04T16:00:50.772Z,49.50
2019-02-04T16:03:22.056Z,49.80
2019-02-04T16:06:01.045Z,69.93
2019-02-04T16:08:27.153Z,60.70
2019-02-04T16:10:58.381Z,45.30
2019-02-04T16:13:29.944Z,62.53
2019-02-04T16:16:01.454Z,43.10
2019-02-04T16:18:32.758Z,39.93
2019-02-04T16:21:03.966Z,64.93
2019-02-04T16:23:35.200Z,43.23
2019-02-04T16:26:06.851Z,39.07
2019-02-04T16:28:37.991Z,34.93
2019-02-04T16:31:09.126Z,35.47
2019-02-04T16:33:40.383Z,34.67
2019-02-04T16:36:11.480Z,36.27
2019-02-04T16:38:46.112Z,37.50
2019-02-04T16:41:17.368Z,21.33
2019-02-04T16:43:48.635Z,38.07
2019-02-04T16:46:20.107Z,31.77
2019-02-04T16:48:51.346Z,25.90
2019-02-04T16:51:24.836Z,33.43
2019-02-04T16:53:56.018Z,20.80
2019-02-04T16:56:27.260Z,28.03
2019-02-04T16:58:58.431Z,40.83
2019-02-04T17:01:29.626Z,32.20
2019-02-04T17:04:01.139Z,25.53
2019-02-04T17:06:32.391Z,31.40
2019-02-04T17:09:04.720Z,29.03
2019-02-04T17:11:37.425Z,37.40
2019-02-04T17:14:08.707Z,31.77
2019-02-04T17:16:40.221Z,48.67
2019-02-04T17:19:11.524Z,31.13
2019-02-04T17:21:42.653Z,31.93
2019-02-04T17:24:13.983Z,25.53
2019-02-04T17:26:45.139Z,26.40
2019-02-04T17:29:18.907Z,28.77
2019-02-04T17:31:50.424Z,27.27
2019-02-04T17:34:21.842Z,20.73
2019-02-04T17:36:54.419Z,18.43
2019-02-04T17:39:25.696Z,20.80
2019-02-04T17:41:56.840Z,27.63
2019-02-04T17:44:28.084Z,27.97
2019-02-04T17:46:59.274Z,24.93
2019-02-04T17:49:30.572Z,22.73
2019-02-04T17:52:01.771Z,20.20
2019-02-04T17:54:33.031Z,23.77
2019-02-04T17:57:06.020Z,19.33
2019-02-04T17:59:37.097Z,22.20
2019-02-04T18:02:08.291Z,22.63
2019-02-04T18:04:39.495Z,24.13
2019-02-04T18:07:10.612Z,24.43
2019-02-04T18:09:41.881Z,26.27
2019-02-04T18:12:13.219Z,25.50
2019-02-04T18:14:44.493Z,30.63
2019-02-04T18:17:17.148Z,36.10
2019-02-04T18:19:48.408Z,50.07
2019-02-04T18:22:19.613Z,48.33
2019-02-04T18:24:52.555Z,53.73
2019-02-04T18:27:23.730Z,32.47
2019-02-04T18:29:55.054Z,37.97
2019-02-04T18:32:26.157Z,49.13
2019-02-04T18:34:57.243Z,39.40
2019-02-04T18:37:28.666Z,24.33
2019-02-04T18:39:59.908Z,37.90
2019-02-04T18:42:31.122Z,41.43
2019-02-04T18:45:02.308Z,36.90
2019-02-04T18:47:33.931Z,33.57
2019-02-04T18:50:08.407Z,30.53
2019-02-04T18:52:39.926Z,31.80
2019-02-04T18:55:16.871Z,34.63
2019-02-04T18:57:48.073Z,56.20
2019-02-04T19:00:24.334Z,37.57
2019-02-04T19:02:57.078Z,52.00
2019-02-04T19:05:28.401Z,50.70
2019-02-04T19:07:59.570Z,37.60
2019-02-04T19:10:30.821Z,29.77
2019-02-04T19:13:02.038Z,30.73
2019-02-04T19:15:33.269Z,34.40
2019-02-04T19:18:07.884Z,23.53
2019-02-04T19:20:39.214Z,24.70
2019-02-04T19:23:10.432Z,24.10
2019-02-04T19:25:43.119Z,27.20
2019-02-04T19:28:14.253Z,31.00
2019-02-04T19:30:54.594Z,25.43
2019-02-04T19:33:25.791Z,23.50
2019-02-04T19:36:01.074Z,18.97
2019-02-04T19:38:33.836Z,15.70
2019-02-04T19:41:07.043Z,15.97
2019-02-04T19:43:38.284Z,20.33
2019-02-04T19:46:09.433Z,23.00
2019-02-04T19:48:40.606Z,18.50
2019-02-04T19:51:11.774Z,15.17
2019-02-04T19:53:44.476Z,16.33
2019-02-04T19:56:15.740Z,12.93
2019-02-04T19:58:46.892Z,12.97
2019-02-04T20:01:18.055Z,16.30
2019-02-04T20:03:49.236Z,16.87
2019-02-04T20:06:21.601Z,17.33
2019-02-04T20:08:52.681Z,15.77
2019-02-04T20:11:23.944Z,18.43
2019-02-04T20:13:55.186Z,22.83
2019-02-04T20:16:26.351Z,39.70
2019-02-04T20:18:57.897Z,23.70
2019-02-04T20:21:29.177Z,21.87
2019-02-04T20:24:00.302Z,21.70
2019-02-04T20:26:31.471Z,24.33
2019-02-04T20:29:04.178Z,18.77
2019-02-04T20:31:35.690Z,20.33
2019-02-04T20:34:06.865Z,16.50
2019-02-04T20:36:38.134Z,14.37
2019-02-04T20:39:09.275Z,16.63
2019-02-04T20:41:40.545Z,16.93
2019-02-04T20:44:11.810Z,16.33
2019-02-04T20:46:43.004Z,15.37
2019-02-04T20:49:14.134Z,16.00
2019-02-04T20:51:45.192Z,23.43
2019-02-04T20:54:19.719Z,19.17
2019-02-04T20:56:50.251Z,30.07
2019-02-04T20:59:22.866Z,24.67
2019-02-04T21:01:54.071Z,20.83
2019-02-04T21:04:25.186Z,16.80
2019-02-04T21:06:56.488Z,21.67
2019-02-04T21:09:27.633Z,31.03
2019-02-04T21:11:58.846Z,28.87
2019-02-04T21:14:30.553Z,27.13
2019-02-04T21:17:03.350Z,27.50
2019-02-04T21:19:34.511Z,21.93
2019-02-04T21:22:08.673Z,20.77
2019-02-04T21:24:39.779Z,17.40
2019-02-04T21:27:10.957Z,21.00
2019-02-04T21:29:44.331Z,21.30
2019-02-04T21:32:16.086Z,25.90
2019-02-04T21:34:47.573Z,18.80
2019-02-04T21:37:18.722Z,13.53
2019-02-04T21:39:49.912Z,14.57
2019-02-04T21:42:21.961Z,16.20
2019-02-04T21:44:52.993Z,15.13
2019-02-04T21:47:24.603Z,15.30
2019-02-04T21:49:56.331Z,18.87
2019-02-04T21:52:28.852Z,17.23
2019-02-04T21:55:08.082Z,18.03
2019-02-04T21:57:32.944Z,18.90
2019-02-04T22:00:09.307Z,20.60
2019-02-04T22:02:40.471Z,20.53
2019-02-04T22:05:14.360Z,21.73
2019-02-04T22:07:45.510Z,22.90
2019-02-04T22:10:22.775Z,25.20
2019-02-04T22:12:53.926Z,27.97
2019-02-04T22:15:26.630Z,30.63
2019-02-04T22:17:58.920Z,34.60
2019-02-04T22:20:30.110Z,87.17
2019-02-04T22:23:01.394Z,67.80
2019-02-04T22:25:32.614Z,49.20
2019-02-04T22:28:05.120Z,24.77
2019-02-04T22:30:36.274Z,31.87
2019-02-04T22:33:09.236Z,27.10
2019-02-04T22:35:40.432Z,28.37
2019-02-04T22:38:12.740Z,35.20
2019-02-04T22:40:43.956Z,35.63
2019-02-04T22:43:15.215Z,34.33
2019-02-04T22:45:46.333Z,37.67
2019-02-04T22:48:18.290Z,40.90
2019-02-04T22:50:49.502Z,27.33
2019-02-04T22:53:20.736Z,27.13
2019-02-04T22:55:54.900Z,33.03
2019-02-04T22:58:26.140Z,40.20
2019-02-04T23:01:00.574Z,25.60
2019-02-04T23:03:31.824Z,24.33
2019-02-04T23:06:02.995Z,24.20
2019-02-04T23:08:41.278Z,23.87
2019-02-04T23:11:12.481Z,24.83
2019-02-04T23:13:43.736Z,24.53
2019-02-04T23:16:14.856Z,20.23
2019-02-04T23:18:46.116Z,23.90
2019-02-04T23:21:17.330Z,25.37
2019-02-04T23:23:48.597Z,24.67
2019-02-04T23:26:20.749Z,30.80
2019-02-04T23:28:53.516Z,46.13
2019-02-04T23:31:24.710Z,31.40
